This is the latest recevied weather packets stored in our database for station/object ANJALA. If no packets are shown the sender has not sent any weather packets the latest 10 day(s).
| Time | Temp. | Humidity | Pressure | Rain* | Wind** | Luminosity | Snow |
|---|---|---|---|---|---|---|---|
| 1777724821 | 20.56° C | 37% | - | 0 mm | - | - | - |
| 1777723621 | 20.56° C | 38% | - | 0 mm | - | - | - |
| 1777722420 | 20.56° C | 41% | - | 0 mm | - | - | - |
| 1777721220 | 19.44° C | 41% | - | 0 mm | - | - | - |
| 1777720020 | 19.44° C | 42% | - | 0 mm | - | - | - |
| 1777718820 | 18.89° C | 45% | - | 0 mm | - | - | - |
| 1777717620 | 18.33° C | 43% | - | 0 mm | - | - | - |
| 1777716420 | 19.44° C | 41% | - | 0 mm | - | - | - |
| 1777715220 | 18.89° C | 43% | - | 0 mm | - | - | - |
| 1777714020 | 18.33° C | 46% | - | 0 mm | - | - | - |
| 1777712820 | 18.33° C | 41% | - | 0 mm | - | - | - |
| 1777711620 | 17.78° C | 43% | - | 0 mm | - | - | - |
| 1777710420 | 17.78° C | 43% | - | 0 mm | - | - | - |
| 1777709220 | 17.22° C | 41% | - | 0 mm | - | - | - |
| 1777708020 | 16.11° C | 47% | - | 0 mm | - | - | - |
| 1777706820 | 15.56° C | 49% | - | 0 mm | - | - | - |
| 1777705619 | 13.89° C | 53% | - | 0 mm | - | - | - |
| 1777704419 | 13.33° C | 58% | - | 0 mm | - | - | - |
| 1777703219 | 12.78° C | 58% | - | 0 mm | - | - | - |
| 1777702019 | 11.11° C | 67% | - | 0 mm | - | - | - |
| 1777700819 | 10.56° C | 69% | - | 0 mm | - | - | - |
| 1777699619 | 10.56° C | 67% | - | 0 mm | - | - | - |
| 1777698419 | 8.89° C | 68% | - | 0 mm | - | - | - |
| 1777697219 | 8.89° C | 73% | - | 0 mm | - | - | - |
| 1777696019 | 7.78° C | 79% | - | 0 mm | - | - | - |
* Rain latest hour (hover to see other rain measurements)
** Current wind speed in m/s (hover to see current wind gust speed)